Steptoe Valley North, Nevada Weather observations

Data are for 10 minute period ending at time listed.
 Day   Time   Solar   Ave.   Ave.  Ave.  Vector  Max.   Baro.   Total    
  of    of     Rad.   Air    Rel.  Wind   Wind   Wind  Press.  Precip.   
Year   Day            Temp.  Hum.  Speed  Dir.   Gust                    
2016   (PST)  Kw/m2    F      %     mph   deg.    mph    mb.     in.     
-------------------------------------------------------------------------
 243   15:00   0.34   82.6    22    5.6   138    11.5   822.1    0.00 
 243   15:10   0.30   83.4    19    4.9   150    16.5   822.1    0.00 
 243   15:20   0.34   84.1    23    1.2   166     4.2   822.0    0.00 
 243   15:30   0.23   84.7    22    1.8   135     3.7   821.9    0.00 
 243   15:40   0.18   83.8    26    2.4   154     5.1   821.9    0.00 
 243   15:50   0.21   82.1    23    3.9   189     8.7   821.8    0.00 
 243   16:00   0.21   82.5    23    3.4   202     6.4   821.8    0.00 
 243   16:10   0.37   82.5    24    3.7   245     6.3   821.8    0.00 
 243   16:20   0.33   86.5    22    2.4   228     5.8   821.7    0.00 
 243   16:30   0.25   84.5    24    4.1   219     7.9   821.6    0.00 
 243   16:40   0.17   80.6    22    5.7   233     9.7   821.5    0.00 
 243   16:50   0.18   80.4    25    5.4   235     7.4   821.6    0.00 
 243   17:00   0.11   79.4    24    5.1   223     7.9   821.7    0.00 
 243   17:10   0.08   78.3    25    4.5   240     6.1   821.7    0.00 
 243   17:20   0.08   79.9    24    2.7   223     4.0   821.6    0.00 
 243   17:30   0.12   80.0    19    1.3   210     1.9   821.6    0.00 
 243   17:40   0.10   83.8    16    0.4   220     2.3   821.5    0.00 
 243   17:50   0.06   77.7    30    4.3     0     6.9   821.5    0.00 
 243   18:00   0.04   77.6    20    3.6     4     5.5   821.5    0.00 
 243   18:10   0.02   74.9    25    3.0    61     4.9   821.5    0.00 
 243   18:20   0.01   72.2    29    2.1   136     3.9   821.6    0.00 
 243   18:30   0.00   75.6    19    2.4    14     4.0   821.7    0.00 
 243   18:40   0.00   75.3    20    3.2    47     6.2   821.8    0.00 
 243   18:50   0.00   70.7    28    3.4    56     5.2   821.8    0.00 
 243   19:00   0.00   71.3    24    1.9   101     3.7   821.9    0.00 
 243   19:10   0.00   70.4    23    2.5   109     5.7   822.1    0.00 
 243   19:20   0.00   70.4    22    2.3    88     3.7   822.2    0.00 
 243   19:30   0.00   68.3    26    3.6   114     5.7   822.2    0.00 
 243   19:40   0.00   64.7    30    4.1    75     6.7   822.4    0.00 
 243   19:50   0.00   64.3    31    1.7   277     4.2   822.5    0.00 
 243   20:00   0.00   68.5    22    1.4    35     2.6   822.4    0.00 
 243   20:10   0.00   73.0    17    2.7   105     4.3   822.4    0.00 
 243   20:20   0.00   66.3    33    3.9   117     5.6   822.5    0.00 
 243   20:30   0.00   57.1    61    5.3   131     6.3   822.6    0.00 
 243   20:40   0.00   54.6    60    5.1   159     6.7   822.6    0.00 
 243   20:50   0.00   56.4    42    2.1   214     4.6   822.5    0.00 
 243   21:00   0.00   56.1    48    3.0   174     5.9   822.5    0.00 
 243   21:10   0.00   56.0    44    0.9   194     1.9   822.5    0.00 
 243   21:20   0.00   57.5    37    2.1   114     2.8   822.4    0.00 
 243   21:30   0.00   54.6    43    3.5    71     4.7   822.5    0.00 
 243   21:40   0.00   53.9    46    4.4    56     5.1   822.4    0.00 
 243   21:50   0.00   55.7    41    4.2    59     5.3   822.3    0.00 
 243   22:00   0.00   56.4    38    3.1    56     5.0   822.3    0.00 
 243   22:10   0.00   55.5    40    3.3    74     4.3   822.3    0.00 
 243   22:20   0.00   54.9    42    2.6    97     3.9   822.4    0.00 
 243   22:30   0.00   55.8    47    0.3   138     2.0   822.4    0.00 
 243   22:40   0.00   53.3    57    3.2   120     6.8   822.4    0.00 
 243   22:50   0.00   51.8    53    2.0    86     4.0   822.4    0.00 
 243   23:00   0.00   51.4    61    0.9   104     1.8   822.4    0.00 
 243   23:10   0.00   50.0    67    1.0    97     2.6   822.4    0.00 
 243   23:20   0.00   49.7    63    0.8    90     1.9   822.5    0.00 
 243   23:30   0.00   48.5    69    1.1    85     3.6   822.4    0.00 
 243   23:40   0.00   46.8    71    4.4   108     5.7   822.4    0.00 
 243   23:50   0.00   47.4    70    3.8   113     5.8   822.4    0.00 
 244    0:00   0.00   48.4    65    1.6   111     3.7   822.4    0.00 
 244    0:10   0.00   48.6    63    0.8   100     1.5   822.4    0.00 
 244    0:20   0.00   48.8    58    2.1    86     3.9   822.4    0.00 
 244    0:30   0.00   46.8    62    3.6    73     4.9   822.4    0.00 
 244    0:40   0.00   48.3    58    3.0   107     4.6   822.4    0.00 
 244    0:50   0.00   50.6    56    3.3   137     4.6   822.4    0.00 
 244    1:00   0.00   52.9    47    4.2   128     5.2   822.3    0.00 
 244    1:10   0.00   52.9    44    3.2   100     5.0   822.3    0.00 
 244    1:20   0.00   53.5    44    1.3   155     5.5   822.3    0.00 
 244    1:30   0.00   53.9    43    0.7   222     2.1   822.3    0.00 
 244    1:40   0.00   53.2    42    1.9   106     5.3   822.4    0.00 
 244    1:50   0.00   56.2    36    3.5   121     8.3   822.4    0.00 
 244    2:00   0.00   55.5    34    2.9   102     4.5   822.5    0.00 
 244    2:10   0.00   55.7    33    2.0   111     3.1   822.5    0.00 
 244    2:20   0.00   55.2    35    0.3   118     2.3   822.5    0.00 
 244    2:30   0.00   53.7    38    1.4   163     3.7   822.4    0.00 
 244    2:40   0.00   53.9    36    2.5   245     4.2   822.3    0.00 
 244    2:50   0.00   53.4    40    5.0   205     7.1   822.3    0.00 
 244    3:00   0.00   52.1    50    5.0   193     6.3   822.3    0.00 
 244    3:10   0.00   51.0    55    2.7   197     4.6   822.4    0.00 
 244    3:20   0.00   48.5    61    1.2     1     4.0   822.4    0.00 
 244    3:30   0.00   50.1    49    1.9   261     3.8   822.4    0.00 
 244    3:40   0.00   52.3    48    5.1   204     6.4   822.4    0.00 
 244    3:50   0.00   50.9    54    5.4   190     6.4   822.4    0.00 
 244    4:00   0.00   50.2    54    5.9   183     7.6   822.5    0.00 
 244    4:10   0.00   51.7    50    6.9   198     8.8   822.5    0.00 
 244    4:20   0.00   53.0    46    7.1   204     8.8   822.5    0.00 
 244    4:30   0.00   53.1    46    6.3   208     7.6   822.5    0.00 
 244    4:40   0.00   52.1    49    6.2   193     7.4   822.5    0.00 
 244    4:50   0.00   50.6    53    5.8   187     6.8   822.5    0.00 
 244    5:00   0.00   50.1    54    5.3   197     6.3   822.6    0.00 
 244    5:10   0.01   49.6    54    4.3   210     5.1   822.7    0.00 
 244    5:20   0.01   49.3    53    1.9   198     3.7   822.8    0.00 
 244    5:30   0.02   49.2    52    1.8   186     3.7   822.8    0.00 
 244    5:40   0.04   49.3    54    2.6   199     4.0   822.8    0.00 
 244    5:50   0.09   49.4    54    1.4    73     3.0   823.0    0.00 
 244    6:00   0.08   51.3    44    2.1   106     4.7   823.0    0.00 
 244    6:10   0.15   54.0    43    2.7   125     4.7   823.0    0.00 
 244    6:20   0.14   57.2    41    3.6   141     6.4   823.1    0.00 
 244    6:30   0.24   61.3    40    2.5   156     4.7   823.1    0.00 
 244    6:40   0.27   63.7    40    1.3   126     2.9   823.2    0.00 
 244    6:50   0.32   66.9    40    1.4   179     4.6   823.3    0.00 
 244    7:00   0.37   67.1    36    3.8   199     5.9   823.4    0.00 
 244    7:10   0.40   67.1    38    5.0   192     7.6   823.5    0.00 
 244    7:20   0.43   67.1    36    6.9   197     9.8   823.6    0.00 
 244    7:30   0.42   68.2    38    6.8   197     9.3   823.6    0.00 
 244    7:40   0.38   67.9    39    6.7   196     9.6   823.6    0.00 
 244    7:50   0.55   71.1    37    6.7   196     9.9   823.6    0.00 
 244    8:00   0.47   71.7    34    7.2   204    11.2   823.6    0.00 
 244    8:10   0.61   73.5    34    8.3   205    13.6   823.6    0.00 
 244    8:20   0.67   75.0    31    9.9   205    14.0   823.7    0.00 
 244    8:30   0.70   76.5    29   10.8   209    16.0   823.7    0.00 
 244    8:40   0.75   77.1    28   12.2   210    16.0   823.6    0.00 
 244    8:50   0.77   78.0    28   12.1   207    16.9   823.6    0.00 
 244    9:00   0.78   78.5    27   11.8   217    18.9   823.5    0.00 
 244    9:10   0.77   78.6    27   12.6   214    18.8   823.5    0.00 
 244    9:20   0.85   79.2    28   11.1   212    19.8   823.4    0.00 
 244    9:30   0.90   80.4    28   10.6   202    18.7   823.3    0.00 
 244    9:40   0.86   80.3    27   14.7   193    23.5   823.1    0.00 
 244    9:50   0.92   80.3    26   13.8   197    22.5   823.1    0.00 
 244   10:00   0.65   79.3    24   14.8   199    22.3   823.0    0.00 
 244   10:10   0.51   79.4    22   16.9   203    26.7   822.9    0.00 
 244   10:20   0.68   79.2    23   16.1   205    22.4   822.9    0.00 
 244   10:30   0.81   80.0    24   14.3   189    23.4   822.8    0.00 
 244   10:40   0.53   79.4    24   13.6   199    22.7   822.8    0.00 
 244   10:50   0.98   81.2    24   15.2   185    25.3   822.6    0.00 
 244   11:00   0.40   78.9    25   14.5   193    23.3   822.7    0.00 
 244   11:10   0.83   79.3    26   11.1   177    17.6   822.7    0.00 
 244   11:20   0.91   82.8    25   13.0   189    21.6   822.6    0.00 
 244   11:30   0.87   81.1    25   16.8   173    27.2   822.4    0.00 
 244   11:40   0.52   80.0    24   15.5   189    24.6   822.4    0.00 
 244   11:50   0.57   79.6    25   15.3   194    24.1   822.4    0.00 
 244   12:00   0.67   80.0    25   15.7   182    26.7   822.2    0.00 
 244   12:10   0.82   81.7    24   16.8   185    26.6   822.1    0.00 
 244   12:20   0.85   81.4    24   14.7   187    23.4   822.0    0.00 
 244   12:30   0.75   81.6    24   15.9   189    25.0   821.9    0.00 
 244   12:40   0.40   79.6    24   14.9   192    23.2   821.8    0.00 
 244   12:50   0.71   80.0    25   14.9   203    22.6   821.8    0.00 
 244   13:00   0.37   80.8    24   13.7   204    22.0   821.6    0.00 
 244   13:10   0.75   81.2    24   13.9   205    20.5   821.4    0.00 
 244   13:20   0.92   82.5    24   13.8   190    20.5   821.3    0.00 
 244   13:30   0.93   83.8    21   15.1   206    23.5   821.1    0.00 
 244   13:40   0.53   82.7    20   15.1   206    27.2   820.9    0.00 
 244   13:50   0.92   82.8    21   12.9   204    20.8   820.8    0.00 
 244   14:00   0.93   83.9    21   15.9   209    24.5   820.8    0.00 
 244   14:10   0.43   82.1    21   13.0   199    21.2   820.8    0.00 
 244   14:20   0.81   82.8    21   18.4   203    27.2   820.7    0.00 
 244   14:30   0.87   83.3    21   15.5   205    23.8   820.7    0.00 
 244   14:40   0.85   84.3    21   15.9   220    23.2   820.6    0.00 
 244   14:50   0.29   80.8    20   14.8   214    21.5   820.7    0.00 

Return to Steptoe Valley North graphs page.


Western Regional Climate Center,wrcc@dri.edu